createdAt,value
2018-08-19T00:00:27.576Z,1.60
2018-08-19T00:03:01.929Z,1.67
2018-08-19T00:05:32.538Z,2.07
2018-08-19T00:08:03.238Z,1.90
2018-08-19T00:11:11.506Z,2.17
2018-08-19T00:13:41.978Z,2.23
2018-08-19T00:16:12.727Z,2.30
2018-08-19T00:18:43.466Z,2.00
2018-08-19T00:21:13.934Z,2.17
2018-08-19T00:23:49.399Z,2.13
2018-08-19T00:26:20.126Z,1.77
2018-08-19T00:28:50.645Z,2.17
2018-08-19T00:31:21.108Z,2.20
2018-08-19T00:33:51.637Z,2.10
2018-08-19T00:36:34.018Z,1.73
2018-08-19T00:39:07.203Z,2.20
2018-08-19T00:41:37.913Z,1.87
2018-08-19T00:44:08.371Z,2.07
2018-08-19T00:46:39.100Z,2.13
2018-08-19T00:49:09.590Z,1.80
2018-08-19T00:51:44.782Z,1.93
2018-08-19T00:54:15.270Z,1.97
2018-08-19T00:56:47.875Z,2.03
2018-08-19T00:59:18.362Z,2.27
2018-08-19T01:01:48.841Z,2.10
2018-08-19T01:04:19.312Z,2.33
2018-08-19T01:06:52.758Z,2.20
2018-08-19T01:09:27.615Z,2.10
2018-08-19T01:11:58.205Z,1.87
2018-08-19T01:14:28.665Z,1.83
2018-08-19T01:16:59.122Z,2.10
2018-08-19T01:19:29.620Z,1.97
2018-08-19T01:22:00.087Z,2.57
2018-08-19T01:24:30.607Z,2.10
2018-08-19T01:27:01.086Z,1.83
2018-08-19T01:29:36.987Z,2.20
2018-08-19T01:32:14.197Z,2.00
2018-08-19T01:34:46.873Z,2.10
2018-08-19T01:37:17.337Z,2.00
2018-08-19T01:39:47.810Z,2.07
2018-08-19T01:42:18.330Z,2.10
2018-08-19T01:44:48.839Z,1.83
2018-08-19T01:47:19.323Z,1.70
2018-08-19T01:49:49.808Z,1.93
2018-08-19T01:52:27.042Z,1.77
2018-08-19T01:54:57.518Z,2.00
2018-08-19T01:57:33.953Z,1.77
2018-08-19T02:00:04.678Z,1.90
2018-08-19T02:02:53.009Z,2.00
2018-08-19T02:05:23.913Z,2.03
2018-08-19T02:07:57.395Z,1.87
2018-08-19T02:10:29.421Z,1.87
2018-08-19T02:13:00.426Z,1.87
2018-08-19T02:15:32.101Z,1.77
2018-08-19T02:18:04.675Z,2.40
2018-08-19T02:20:42.568Z,1.60
2018-08-19T02:23:13.921Z,1.87
2018-08-19T02:25:47.191Z,2.20
2018-08-19T02:28:22.358Z,1.73
2018-08-19T02:30:57.971Z,2.10
2018-08-19T02:33:32.439Z,1.70
2018-08-19T02:36:04.382Z,2.00
2018-08-19T02:38:35.327Z,1.90
2018-08-19T02:41:06.552Z,1.70
2018-08-19T02:43:46.284Z,2.00
2018-08-19T02:46:16.627Z,2.10
2018-08-19T02:48:50.156Z,1.93
2018-08-19T02:51:21.267Z,1.73
2018-08-19T02:53:52.395Z,1.87
2018-08-19T02:56:22.728Z,1.97
2018-08-19T02:58:53.121Z,2.00
2018-08-19T03:01:23.473Z,2.00
2018-08-19T03:03:53.825Z,1.80
2018-08-19T03:06:24.205Z,1.80
2018-08-19T03:09:00.388Z,1.87
2018-08-19T03:11:30.743Z,1.97
2018-08-19T03:14:01.047Z,1.90
2018-08-19T03:16:31.718Z,2.07
2018-08-19T03:19:02.049Z,1.90
2018-08-19T03:21:32.393Z,2.00
2018-08-19T03:24:02.697Z,1.90
2018-08-19T03:26:33.024Z,2.00
2018-08-19T03:29:07.688Z,2.10
2018-08-19T03:31:38.018Z,1.63
2018-08-19T03:34:08.412Z,1.90
2018-08-19T03:36:38.996Z,2.00
2018-08-19T03:39:17.897Z,1.80
2018-08-19T03:41:48.476Z,2.00
2018-08-19T03:44:19.917Z,2.10
2018-08-19T03:46:50.253Z,1.97
2018-08-19T03:49:20.572Z,1.90
2018-08-19T03:51:50.898Z,2.57
2018-08-19T03:54:21.461Z,1.90
2018-08-19T03:56:51.794Z,1.90
2018-08-19T03:59:22.418Z,2.03
2018-08-19T04:01:52.784Z,1.87
2018-08-19T04:04:23.130Z,1.80
2018-08-19T04:06:53.489Z,1.87
2018-08-19T04:09:23.867Z,1.70
2018-08-19T04:12:10.627Z,1.87
2018-08-19T04:14:41.217Z,1.80
2018-08-19T04:17:14.239Z,1.70
2018-08-19T04:19:44.717Z,2.10
2018-08-19T04:22:15.336Z,1.80
2018-08-19T04:24:45.665Z,1.80
2018-08-19T04:27:16.046Z,1.93
2018-08-19T04:29:46.386Z,1.63
2018-08-19T04:32:22.001Z,2.00
2018-08-19T04:34:52.672Z,1.77
2018-08-19T04:37:23.241Z,1.80
2018-08-19T04:39:53.552Z,1.70
2018-08-19T04:42:24.087Z,1.80
2018-08-19T04:44:54.846Z,1.93
2018-08-19T04:47:31.844Z,1.97
2018-08-19T04:50:02.164Z,1.67
2018-08-19T04:52:33.428Z,2.00
2018-08-19T04:55:03.753Z,1.90
2018-08-19T04:57:34.094Z,1.70
2018-08-19T05:00:04.475Z,2.00
2018-08-19T05:02:34.948Z,1.83
2018-08-19T05:05:05.692Z,2.10
2018-08-19T05:07:36.096Z,1.97
2018-08-19T05:10:06.482Z,2.00
2018-08-19T05:12:36.852Z,1.87
2018-08-19T05:15:07.181Z,1.87
2018-08-19T05:17:37.864Z,1.73
2018-08-19T05:20:14.190Z,2.07
2018-08-19T05:22:44.918Z,1.83
2018-08-19T05:25:15.512Z,2.00
2018-08-19T05:27:51.649Z,1.87
2018-08-19T05:30:21.981Z,1.60
2018-08-19T05:32:57.664Z,1.80
2018-08-19T05:35:28.137Z,2.07
2018-08-19T05:37:59.112Z,2.00
2018-08-19T05:40:29.526Z,1.93
2018-08-19T05:42:59.896Z,2.03
2018-08-19T05:45:30.496Z,1.47
2018-08-19T05:48:11.180Z,2.00
2018-08-19T05:50:41.531Z,1.70
2018-08-19T05:53:11.920Z,2.07
2018-08-19T05:55:42.366Z,1.90
2018-08-19T05:58:13.192Z,1.83
2018-08-19T06:00:48.257Z,1.83
2018-08-19T06:03:18.617Z,2.00
2018-08-19T06:05:48.994Z,1.90
2018-08-19T06:08:19.824Z,2.00
2018-08-19T06:10:50.457Z,2.00
2018-08-19T06:13:20.836Z,2.30
2018-08-19T06:15:51.214Z,1.50
2018-08-19T06:18:21.780Z,2.27
2018-08-19T06:20:52.137Z,1.90
2018-08-19T06:23:22.820Z,1.90
2018-08-19T06:25:53.411Z,2.00
2018-08-19T06:28:23.785Z,2.03
2018-08-19T06:30:54.140Z,1.60
2018-08-19T06:33:24.516Z,1.50
2018-08-19T06:35:54.840Z,1.67
2018-08-19T06:38:25.180Z,2.07
2018-08-19T06:40:55.572Z,1.50
2018-08-19T06:43:26.257Z,1.20
2018-08-19T06:45:56.610Z,0.97
2018-08-19T06:48:26.968Z,0.87
2018-08-19T06:50:57.305Z,0.90
2018-08-19T06:53:29.581Z,0.83
2018-08-19T06:55:59.900Z,0.90
2018-08-19T06:58:30.273Z,0.90
2018-08-19T07:01:00.692Z,0.73
2018-08-19T07:03:31.186Z,0.70
2018-08-19T07:06:10.437Z,0.60
2018-08-19T07:08:41.046Z,0.90
2018-08-19T07:11:11.620Z,0.80
2018-08-19T07:13:41.980Z,0.80
2018-08-19T07:16:12.334Z,0.90
2018-08-19T07:18:42.798Z,0.80
2018-08-19T07:21:13.288Z,0.73
2018-08-19T07:23:43.714Z,0.70
2018-08-19T07:26:14.225Z,1.00
2018-08-19T07:28:44.677Z,0.90
2018-08-19T07:31:15.508Z,0.80
2018-08-19T07:33:45.860Z,0.87
2018-08-19T07:36:16.209Z,0.83
2018-08-19T07:38:46.562Z,0.90
2018-08-19T07:41:16.919Z,0.90
2018-08-19T07:43:47.292Z,0.90
2018-08-19T07:46:17.800Z,0.90
2018-08-19T07:48:48.160Z,0.80
2018-08-19T07:51:18.504Z,0.90
2018-08-19T07:53:49.135Z,0.93
2018-08-19T07:56:19.459Z,0.90
2018-08-19T07:59:14.545Z,0.80
2018-08-19T08:01:44.922Z,0.90
2018-08-19T08:04:15.253Z,0.93
2018-08-19T08:06:46.881Z,1.00
2018-08-19T08:09:21.032Z,0.90
2018-08-19T08:11:51.347Z,0.90
2018-08-19T08:14:21.678Z,0.90
2018-08-19T08:16:55.744Z,1.00
2018-08-19T08:19:26.068Z,1.00
2018-08-19T08:22:03.342Z,0.97
2018-08-19T08:24:45.529Z,0.90
2018-08-19T08:27:27.781Z,1.03
2018-08-19T08:29:58.308Z,0.83
2018-08-19T08:32:29.664Z,0.87
2018-08-19T08:35:00.020Z,1.00
2018-08-19T08:37:30.328Z,1.10
2018-08-19T08:40:06.025Z,1.20
2018-08-19T08:42:39.784Z,1.00
2018-08-19T08:45:11.557Z,0.90
2018-08-19T08:47:42.484Z,0.80
2018-08-19T08:50:13.644Z,0.87
2018-08-19T08:52:45.188Z,1.00
2018-08-19T08:55:15.520Z,0.73
2018-08-19T08:57:46.076Z,0.90
2018-08-19T09:00:16.456Z,0.90
2018-08-19T09:02:47.061Z,1.10
2018-08-19T09:05:17.468Z,0.97
2018-08-19T09:07:52.045Z,0.87
2018-08-19T09:10:22.402Z,0.97
2018-08-19T09:12:55.073Z,0.93
2018-08-19T09:15:27.536Z,1.00
2018-08-19T09:17:57.877Z,1.33
2018-08-19T09:20:28.488Z,0.70
2018-08-19T09:22:58.892Z,0.93
2018-08-19T09:25:29.936Z,0.93
2018-08-19T09:28:01.060Z,0.90
2018-08-19T09:30:42.297Z,0.85
2018-08-19T09:33:13.906Z,1.05
2018-08-19T09:35:44.954Z,1.27
2018-08-19T09:38:19.760Z,1.25
2018-08-19T09:40:51.036Z,1.12
2018-08-19T09:43:22.057Z,0.90
2018-08-19T09:45:55.323Z,0.70
2018-08-19T09:48:26.266Z,1.02
2018-08-19T09:51:01.816Z,0.72
2018-08-19T09:53:32.734Z,0.88
2018-08-19T09:56:10.748Z,1.05
2018-08-19T09:58:45.840Z,1.00
2018-08-19T10:01:48.533Z,1.00
2018-08-19T10:04:22.105Z,0.90
2018-08-19T10:24:41.765Z,0.65
2018-08-19T10:27:12.661Z,1.05
2018-08-19T10:29:43.581Z,1.02
2018-08-19T10:32:14.660Z,1.50
2018-08-19T10:34:45.518Z,1.00
2018-08-19T10:37:16.400Z,1.10
2018-08-19T10:39:47.268Z,1.30
2018-08-19T10:42:22.968Z,1.02
2018-08-19T10:44:54.072Z,1.00
2018-08-19T10:47:25.006Z,1.10
2018-08-19T10:50:02.997Z,1.10
2018-08-19T10:52:37.649Z,1.22
2018-08-19T10:55:10.773Z,1.10
2018-08-19T10:57:41.880Z,1.27
2018-08-19T11:00:30.599Z,1.40
2018-08-19T11:03:25.443Z,1.30
2018-08-19T11:06:10.674Z,1.52
2018-08-19T11:08:46.822Z,2.17
2018-08-19T11:11:17.693Z,1.55
2018-08-19T11:13:48.828Z,2.50
2018-08-19T11:16:19.675Z,1.52
2018-08-19T11:18:50.562Z,2.00
2018-08-19T11:21:28.922Z,1.32
2018-08-19T11:24:00.140Z,1.27
2018-08-19T11:26:31.034Z,1.27
2018-08-19T11:29:05.334Z,1.10
2018-08-19T11:31:36.947Z,1.30
2018-08-19T11:34:09.258Z,1.32
2018-08-19T11:36:43.345Z,1.20
2018-08-19T11:39:15.809Z,1.40
2018-08-19T11:41:46.644Z,1.30
2018-08-19T11:44:18.149Z,1.10
2018-08-19T11:46:49.005Z,1.12
2018-08-19T11:49:20.764Z,1.15
2018-08-19T11:51:59.097Z,1.20
2018-08-19T11:54:31.069Z,1.20
2018-08-19T11:57:12.769Z,1.30
2018-08-19T11:59:46.317Z,1.40
2018-08-19T12:02:20.788Z,1.42
2018-08-19T12:04:51.681Z,1.27
2018-08-19T12:07:22.626Z,1.12
2018-08-19T12:09:59.074Z,1.52
2018-08-19T12:12:47.272Z,1.25
2018-08-19T12:15:18.193Z,1.40
2018-08-19T12:17:49.137Z,1.25
2018-08-19T12:20:28.417Z,1.10
2018-08-19T12:22:59.336Z,1.70
2018-08-19T12:25:30.710Z,1.30
2018-08-19T12:28:01.885Z,1.40
2018-08-19T12:30:33.359Z,1.40
2018-08-19T12:33:19.597Z,1.52
2018-08-19T12:35:52.816Z,1.45
2018-08-19T12:38:23.744Z,1.90
2018-08-19T12:40:54.635Z,1.52
2018-08-19T12:43:25.553Z,1.42
2018-08-19T12:45:56.448Z,1.70
2018-08-19T12:48:27.471Z,1.57
2018-08-19T12:51:03.888Z,1.60
2018-08-19T12:53:35.573Z,1.65
2018-08-19T12:56:06.461Z,1.60
2018-08-19T12:58:37.386Z,1.67
2018-08-19T13:01:08.534Z,1.37
2018-08-19T13:03:39.444Z,1.52
2018-08-19T13:06:10.570Z,1.70
2018-08-19T13:08:41.492Z,1.70
2018-08-19T13:11:12.413Z,1.60
2018-08-19T13:13:43.329Z,1.37
2018-08-19T13:16:14.244Z,1.67
2018-08-19T13:18:45.166Z,1.55
2018-08-19T13:21:22.443Z,1.85
2018-08-19T13:23:53.606Z,1.40
2018-08-19T13:26:24.512Z,1.40
2018-08-19T13:28:55.784Z,1.55
2018-08-19T13:31:32.701Z,1.42
2018-08-19T13:34:04.636Z,1.55
2018-08-19T13:36:35.645Z,1.50
2018-08-19T13:39:09.192Z,1.60
2018-08-19T13:41:40.328Z,1.40
2018-08-19T13:44:11.495Z,1.80
2018-08-19T13:46:42.407Z,1.60
2018-08-19T13:49:13.313Z,1.50
2018-08-19T13:51:44.245Z,1.75
2018-08-19T13:54:15.162Z,1.60
2018-08-19T13:56:46.501Z,1.70
2018-08-19T13:59:17.974Z,1.75
2018-08-19T14:01:48.874Z,1.35
2018-08-19T14:04:19.812Z,1.60
2018-08-19T14:06:50.961Z,1.50
2018-08-19T14:09:21.874Z,1.40
2018-08-19T14:11:53.028Z,1.37
2018-08-19T14:14:24.213Z,1.70
2018-08-19T14:16:55.105Z,1.45
2018-08-19T14:19:25.990Z,1.42
2018-08-19T14:21:56.847Z,1.42
2018-08-19T14:24:27.968Z,1.52
2018-08-19T14:26:59.128Z,1.30
2018-08-19T14:29:30.035Z,1.60
2018-08-19T14:32:00.893Z,1.52
2018-08-19T14:34:31.796Z,1.80
2018-08-19T14:37:02.722Z,1.60
2018-08-19T14:39:33.752Z,1.60
2018-08-19T14:42:04.614Z,1.30
2018-08-19T14:44:35.562Z,1.30
2018-08-19T14:47:06.420Z,1.90
2018-08-19T14:49:38.010Z,1.57
2018-08-19T14:52:08.976Z,1.47
2018-08-19T14:54:39.969Z,1.30
2018-08-19T14:57:10.966Z,1.32
2018-08-19T14:59:41.832Z,1.50
2018-08-19T15:02:12.702Z,1.50
2018-08-19T15:04:45.388Z,1.47
2018-08-19T15:07:16.309Z,1.70
2018-08-19T15:09:52.612Z,1.22
2018-08-19T15:12:24.603Z,1.60
2018-08-19T15:15:00.463Z,1.80
2018-08-19T15:17:31.349Z,1.50
2018-08-19T15:20:02.294Z,1.60
2018-08-19T15:22:33.457Z,1.70
2018-08-19T15:25:04.402Z,1.50
2018-08-19T15:27:39.671Z,1.77
2018-08-19T15:30:13.914Z,1.67
2018-08-19T15:32:45.195Z,1.60
2018-08-19T15:35:15.912Z,1.57
2018-08-19T15:37:46.789Z,1.55
2018-08-19T15:40:41.583Z,1.62
2018-08-19T15:43:13.093Z,1.50
2018-08-19T15:45:44.921Z,1.50
2018-08-19T15:48:16.097Z,1.27
2018-08-19T15:50:47.008Z,1.47
2018-08-19T15:53:18.536Z,1.60
2018-08-19T15:55:49.730Z,1.27
2018-08-19T15:58:20.612Z,1.47
2018-08-19T16:00:51.518Z,1.47
2018-08-19T16:03:22.680Z,1.50
2018-08-19T16:05:53.605Z,1.50
2018-08-19T16:08:24.749Z,1.42
2018-08-19T16:10:55.658Z,1.60
2018-08-19T16:13:26.569Z,1.52
2018-08-19T16:15:57.513Z,2.00
2018-08-19T16:18:28.421Z,1.67
2018-08-19T16:21:03.297Z,1.55
2018-08-19T16:23:34.222Z,1.80
2018-08-19T16:26:05.161Z,1.55
2018-08-19T16:28:36.083Z,1.80
2018-08-19T16:31:07.001Z,1.67
2018-08-19T16:33:37.932Z,1.57
2018-08-19T16:36:08.878Z,1.77
2018-08-19T16:38:39.785Z,1.60
2018-08-19T16:41:10.702Z,1.60
2018-08-19T16:43:41.594Z,1.57
2018-08-19T16:46:12.520Z,1.67
2018-08-19T16:48:43.678Z,1.60
2018-08-19T16:51:14.610Z,1.70
2018-08-19T16:53:45.530Z,1.90
2018-08-19T16:56:16.447Z,1.50
2018-08-19T16:58:47.372Z,11.93
2018-08-19T17:01:18.313Z,11.25
2018-08-19T17:03:49.210Z,1.62
2018-08-19T17:06:20.372Z,1.85
2018-08-19T17:08:50.707Z,1.57
2018-08-19T17:11:21.048Z,1.60
2018-08-19T17:13:51.659Z,1.50
2018-08-19T17:16:22.009Z,1.43
2018-08-19T17:18:52.357Z,1.63
2018-08-19T17:21:22.681Z,1.67
2018-08-19T17:23:52.996Z,2.00
2018-08-19T17:26:24.681Z,1.80
2018-08-19T17:28:55.828Z,2.30
2018-08-19T17:31:26.154Z,2.07
2018-08-19T17:33:56.442Z,2.00
2018-08-19T17:36:32.900Z,1.80
2018-08-19T17:39:03.301Z,1.77
2018-08-19T17:41:33.764Z,1.80
2018-08-19T17:44:04.209Z,1.87
2018-08-19T17:46:34.844Z,2.00
2018-08-19T17:49:07.198Z,2.20
2018-08-19T17:51:37.537Z,2.20
2018-08-19T17:54:15.060Z,2.20
2018-08-19T17:56:45.388Z,2.03
2018-08-19T17:59:15.727Z,2.13
2018-08-19T18:01:46.268Z,1.67
2018-08-19T18:04:16.558Z,1.90
2018-08-19T18:06:46.894Z,1.90
2018-08-19T18:09:18.180Z,1.70
2018-08-19T18:11:54.827Z,1.87
2018-08-19T18:14:25.131Z,2.03
2018-08-19T18:16:55.509Z,1.73
2018-08-19T18:19:25.845Z,1.90
2018-08-19T18:21:56.202Z,1.60
2018-08-19T18:24:26.526Z,1.70
2018-08-19T18:26:56.876Z,1.80
2018-08-19T18:29:32.000Z,1.73
2018-08-19T18:32:02.360Z,2.23
2018-08-19T18:34:32.683Z,2.27
2018-08-19T18:37:03.037Z,1.83
2018-08-19T18:39:33.659Z,1.90
2018-08-19T18:42:04.017Z,1.90
2018-08-19T18:44:34.362Z,2.07
2018-08-19T18:47:05.003Z,1.63
2018-08-19T18:49:35.600Z,2.17
2018-08-19T18:52:17.923Z,1.97
2018-08-19T18:54:48.252Z,2.33
2018-08-19T18:57:18.618Z,1.90
2018-08-19T18:59:48.946Z,1.87
2018-08-19T19:05:53.145Z,1.90
2018-08-19T19:08:23.745Z,1.97
2018-08-19T19:10:59.410Z,1.93
2018-08-19T19:13:30.009Z,2.00
2018-08-19T19:16:00.348Z,2.03
2018-08-19T19:18:30.777Z,2.20
2018-08-19T19:21:02.197Z,1.90
2018-08-19T19:23:34.781Z,1.93
2018-08-19T19:26:06.430Z,1.87
2018-08-19T19:28:36.797Z,1.73
2018-08-19T19:31:12.386Z,2.00
2018-08-19T19:33:42.737Z,2.10
2018-08-19T19:36:18.345Z,1.73
2018-08-19T19:38:54.062Z,2.10
2018-08-19T19:41:33.948Z,2.17
2018-08-19T19:44:22.303Z,1.40
2018-08-19T19:46:53.851Z,1.90
2018-08-19T19:49:24.528Z,2.10
2018-08-19T19:51:57.372Z,1.80
2018-08-19T19:54:29.353Z,1.90
2018-08-19T19:57:00.077Z,1.70
2018-08-19T19:59:31.988Z,1.63
2018-08-19T20:02:02.420Z,1.70
2018-08-19T20:04:35.980Z,1.70
2018-08-19T20:07:06.572Z,1.73
2018-08-19T20:09:37.042Z,1.77
2018-08-19T20:12:13.744Z,1.87
2018-08-19T20:14:50.896Z,1.97
2018-08-19T20:17:22.017Z,1.90
2018-08-19T20:19:52.357Z,1.80
2018-08-19T20:22:22.686Z,2.03
2018-08-19T20:24:53.009Z,1.90
2018-08-19T20:27:23.328Z,1.80
2018-08-19T20:29:54.713Z,2.17
2018-08-19T20:32:25.043Z,1.90
2018-08-19T20:34:55.611Z,2.10
2018-08-19T20:37:27.849Z,1.90
2018-08-19T20:39:58.201Z,1.70
2018-08-19T20:42:28.509Z,2.00
2018-08-19T20:44:58.872Z,1.70
2018-08-19T20:47:29.171Z,1.80
2018-08-19T20:49:59.566Z,1.87
2018-08-19T20:52:49.280Z,1.83
2018-08-19T20:55:19.873Z,1.87
2018-08-19T20:57:50.173Z,1.80
2018-08-19T21:00:20.517Z,2.00
2018-08-19T21:02:50.832Z,1.70
2018-08-19T21:05:21.425Z,1.90
2018-08-19T21:07:54.885Z,1.90
2018-08-19T21:10:25.237Z,2.23
2018-08-19T21:12:55.556Z,2.00
2018-08-19T21:15:30.020Z,1.97
2018-08-19T21:18:01.564Z,2.00
2018-08-19T21:20:32.278Z,1.90
2018-08-19T21:23:03.032Z,1.83
2018-08-19T21:25:33.744Z,2.23
2018-08-19T21:28:04.072Z,2.23
2018-08-19T21:30:34.469Z,2.00
2018-08-19T21:33:04.981Z,2.10
2018-08-19T21:35:40.500Z,2.07
2018-08-19T21:38:10.825Z,2.10
2018-08-19T21:40:41.329Z,2.00
2018-08-19T21:43:11.936Z,2.10
2018-08-19T21:45:42.280Z,1.97
2018-08-19T21:48:15.855Z,1.90
2018-08-19T21:50:46.502Z,2.17
2018-08-19T21:53:17.949Z,2.20
2018-08-19T21:55:51.284Z,2.40
2018-08-19T21:58:21.595Z,2.40
2018-08-19T22:01:08.293Z,1.83
2018-08-19T22:03:43.945Z,2.20
2018-08-19T22:06:14.276Z,1.77
2018-08-19T22:08:45.091Z,2.07
2018-08-19T22:11:15.646Z,1.77
2018-08-19T22:13:46.253Z,2.10
2018-08-19T22:16:16.607Z,2.00
2018-08-19T22:18:46.971Z,1.97
2018-08-19T22:21:20.271Z,2.00
2018-08-19T22:23:51.962Z,2.20
2018-08-19T22:26:22.284Z,2.00
2018-08-19T22:29:10.964Z,2.03
2018-08-19T22:31:41.302Z,1.77
2018-08-19T22:34:11.897Z,1.77
2018-08-19T22:36:42.256Z,1.90
2018-08-19T22:39:15.332Z,2.20
2018-08-19T22:41:50.105Z,1.93
2018-08-19T22:44:20.732Z,2.07
2018-08-19T22:46:51.044Z,2.23
2018-08-19T22:49:21.396Z,2.23
2018-08-19T22:51:51.728Z,1.87
2018-08-19T22:54:22.093Z,1.90
2018-08-19T22:56:52.411Z,2.03
2018-08-19T22:59:23.028Z,1.97
2018-08-19T23:01:53.388Z,2.33
2018-08-19T23:04:24.013Z,2.00
2018-08-19T23:06:54.340Z,2.03
2018-08-19T23:09:24.696Z,2.03
2018-08-19T23:11:55.296Z,2.13
2018-08-19T23:14:42.858Z,2.23
2018-08-19T23:17:13.176Z,2.00
2018-08-19T23:19:43.765Z,2.17
2018-08-19T23:22:14.068Z,2.10
2018-08-19T23:24:44.403Z,1.73
2018-08-19T23:27:14.752Z,1.80
2018-08-19T23:29:45.089Z,2.07
2018-08-19T23:32:15.397Z,2.03
2018-08-19T23:34:45.729Z,1.93
2018-08-19T23:37:16.050Z,1.90
2018-08-19T23:39:46.384Z,2.20
2018-08-19T23:42:16.685Z,2.20
2018-08-19T23:44:47.024Z,2.10
2018-08-19T23:47:17.317Z,2.23
2018-08-19T23:49:47.638Z,2.20
2018-08-19T23:52:17.967Z,2.50
2018-08-19T23:54:48.269Z,2.17
2018-08-19T23:57:18.828Z,2.13
2018-08-19T23:59:49.144Z,2.07
